Time,TemperatureF,DewpointF,PressureIn,WindDirection,WindDirectionDegrees,WindSpeedMPH,WindSpeedGustMPH,Humidity,HourlyPrecipIn,Conditions,Clouds,dailyrainin,SolarRadiationWatts/m^2,SoftwareType,DateUTC
2013-07-29 00:01:00,56.9,50.1,30.06,ENE,76,1.0,2.0,78,0.00,,,0.00,0,LWC V2.00 B727,2013-07-29 06:01:00,
2013-07-29 00:06:00,56.7,50.3,30.06,South,169,0.0,4.0,79,0.00,,,0.00,0,LWC V2.00 B727,2013-07-29 06:06:00,
2013-07-29 00:11:00,56.5,50.4,30.06,SSE,159,1.0,5.0,80,0.00,,,0.00,0,LWC V2.00 B727,2013-07-29 06:11:00,
2013-07-29 00:16:00,56.4,50.3,30.06,SE,140,2.0,5.0,80,0.00,,,0.00,0,LWC V2.00 B727,2013-07-29 06:16:00,
2013-07-29 00:21:00,56.1,49.7,30.06,ESE,117,2.0,2.0,79,0.00,,,0.00,0,LWC V2.00 B727,2013-07-29 06:21:00,
2013-07-29 00:26:00,55.9,49.5,30.06,ESE,105,0.0,1.0,79,0.00,,,0.00,0,LWC V2.00 B727,2013-07-29 06:26:00,
2013-07-29 00:31:00,55.7,49.3,30.06,ESE,112,0.0,0.0,79,0.00,,,0.00,0,LWC V2.00 B727,2013-07-29 06:31:00,
2013-07-29 00:36:00,55.5,49.1,30.06,ESE,113,0.0,1.0,79,0.00,,,0.00,0,LWC V2.00 B727,2013-07-29 06:36:00,
2013-07-29 00:41:00,55.3,48.9,30.05,ESE,113,0.0,0.0,79,0.00,,,0.00,0,LWC V2.00 B727,2013-07-29 06:41:00,
2013-07-29 00:46:00,55.1,48.7,30.05,ESE,113,0.0,0.0,79,0.00,,,0.00,0,LWC V2.00 B727,2013-07-29 06:46:00,
2013-07-29 00:51:00,54.8,48.7,30.04,ESE,113,0.0,2.0,80,0.00,,,0.00,0,LWC V2.00 B727,2013-07-29 06:51:00,
2013-07-29 00:56:00,54.5,48.8,30.04,ESE,113,0.0,0.0,81,0.00,,,0.00,0,LWC V2.00 B727,2013-07-29 06:56:00,
2013-07-29 01:01:00,54.3,48.6,30.04,ESE,113,0.0,0.0,81,0.00,,,0.00,0,LWC V2.00 B727,2013-07-29 07:01:00,
2013-07-29 01:06:00,54.2,48.8,30.04,ESE,113,0.0,0.0,82,0.00,,,0.00,0,LWC V2.00 B727,2013-07-29 07:06:00,
2013-07-29 01:11:00,54.0,48.6,30.03,ESE,113,0.0,0.0,82,0.00,,,0.00,0,LWC V2.00 B727,2013-07-29 07:11:00,
2013-07-29 01:16:00,53.8,48.4,30.03,ESE,113,0.0,0.0,82,0.00,,,0.00,0,LWC V2.00 B727,2013-07-29 07:16:00,
2013-07-29 01:21:00,53.5,47.5,30.03,ESE,113,0.0,0.0,80,0.00,,,0.00,0,LWC V2.00 B727,2013-07-29 07:21:00,
2013-07-29 01:26:00,53.1,47.1,30.04,ESE,113,0.0,0.0,80,0.00,,,0.00,0,LWC V2.00 B727,2013-07-29 07:26:00,
2013-07-29 01:31:00,52.7,46.7,30.03,ESE,113,0.0,0.0,80,0.00,,,0.00,0,LWC V2.00 B727,2013-07-29 07:31:00,
2013-07-29 01:36:00,52.4,46.7,30.03,ESE,113,0.0,0.0,81,0.00,,,0.00,0,LWC V2.00 B727,2013-07-29 07:36:00,
2013-07-29 01:41:00,52.1,47.1,30.03,ESE,113,0.0,0.0,83,0.00,,,0.00,0,LWC V2.00 B727,2013-07-29 07:41:00,
2013-07-29 01:46:00,51.8,47.1,30.03,ESE,113,0.0,0.0,84,0.00,,,0.00,0,LWC V2.00 B727,2013-07-29 07:46:00,
2013-07-29 01:51:00,51.6,46.9,30.04,ESE,113,0.0,0.0,84,0.00,,,0.00,0,LWC V2.00 B727,2013-07-29 07:51:00,
2013-07-29 01:56:00,51.3,46.6,30.04,ESE,113,0.0,0.0,84,0.00,,,0.00,0,LWC V2.00 B727,2013-07-29 07:56:00,
2013-07-29 02:01:00,51.0,46.3,30.04,ESE,113,0.0,0.0,84,0.00,,,0.00,0,LWC V2.00 B727,2013-07-29 08:01:00,
2013-07-29 02:06:00,50.7,46.0,30.04,ESE,113,0.0,0.0,84,0.00,,,0.00,0,LWC V2.00 B727,2013-07-29 08:06:00,
2013-07-29 02:11:00,50.4,45.4,30.04,ESE,113,0.0,0.0,83,0.00,,,0.00,0,LWC V2.00 B727,2013-07-29 08:11:00,
2013-07-29 02:16:00,50.0,45.4,30.04,ESE,113,0.0,0.0,84,0.00,,,0.00,0,LWC V2.00 B727,2013-07-29 08:16:00,
2013-07-29 02:21:00,49.7,45.1,30.04,ESE,113,0.0,0.0,84,0.00,,,0.00,0,LWC V2.00 B727,2013-07-29 08:21:00,
2013-07-29 02:26:00,49.5,45.2,30.04,ESE,113,0.0,0.0,85,0.00,,,0.00,0,LWC V2.00 B727,2013-07-29 08:26:00,
2013-07-29 02:31:00,49.4,45.4,30.05,ESE,113,0.0,0.0,86,0.00,,,0.00,0,LWC V2.00 B727,2013-07-29 08:31:00,
2013-07-29 02:36:00,49.2,45.2,30.05,ESE,113,0.0,0.0,86,0.00,,,0.00,0,LWC V2.00 B727,2013-07-29 08:36:00,
2013-07-29 02:41:00,49.2,45.2,30.05,ESE,113,0.0,0.0,86,0.00,,,0.00,0,LWC V2.00 B727,2013-07-29 08:41:00,
2013-07-29 02:46:00,49.0,45.0,30.05,ESE,113,0.0,0.0,86,0.00,,,0.00,0,LWC V2.00 B727,2013-07-29 08:46:00,
2013-07-29 02:51:00,49.0,45.3,30.05,ESE,113,0.0,1.0,87,0.00,,,0.00,0,LWC V2.00 B727,2013-07-29 08:51:00,
2013-07-29 02:56:00,49.0,45.6,30.05,ESE,113,0.0,1.0,88,0.00,,,0.00,0,LWC V2.00 B727,2013-07-29 08:56:00,
2013-07-29 03:01:00,49.2,46.1,30.05,ESE,113,0.0,2.0,89,0.00,,,0.00,0,LWC V2.00 B727,2013-07-29 09:01:00,
2013-07-29 03:06:00,49.4,46.3,30.05,ESE,113,0.0,1.0,89,0.00,,,0.00,0,LWC V2.00 B727,2013-07-29 09:06:00,
2013-07-29 03:11:00,49.6,46.5,30.05,ESE,113,0.0,0.0,89,0.00,,,0.00,0,LWC V2.00 B727,2013-07-29 09:11:00,
2013-07-29 03:16:00,49.7,46.9,30.05,ESE,113,0.0,1.0,90,0.00,,,0.00,0,LWC V2.00 B727,2013-07-29 09:16:00,
2013-07-29 03:21:00,49.8,47.0,30.05,ESE,113,0.0,0.0,90,0.00,,,0.00,0,LWC V2.00 B727,2013-07-29 09:21:00,
2013-07-29 03:26:00,49.9,47.1,30.05,ESE,113,0.0,0.0,90,0.00,,,0.00,0,LWC V2.00 B727,2013-07-29 09:26:00,
2013-07-29 03:31:00,49.9,46.8,30.05,ESE,113,0.0,0.0,89,0.00,,,0.00,0,LWC V2.00 B727,2013-07-29 09:31:00,
2013-07-29 03:36:00,49.9,47.1,30.05,ESE,113,0.0,0.0,90,0.00,,,0.00,0,LWC V2.00 B727,2013-07-29 09:36:00,
2013-07-29 03:41:00,49.9,46.8,30.05,ESE,113,0.0,1.0,89,0.00,,,0.00,0,LWC V2.00 B727,2013-07-29 09:41:00,
2013-07-29 03:46:00,49.9,46.8,30.05,ESE,113,0.0,0.0,89,0.00,,,0.00,0,LWC V2.00 B727,2013-07-29 09:46:00,
2013-07-29 03:51:00,49.8,46.7,30.05,ESE,113,0.0,0.0,89,0.00,,,0.00,0,LWC V2.00 B727,2013-07-29 09:51:00,
2013-07-29 03:56:00,49.6,46.2,30.05,ESE,113,0.0,0.0,88,0.00,,,0.00,0,LWC V2.00 B727,2013-07-29 09:56:00,
2013-07-29 04:01:00,49.2,45.8,30.05,ESE,113,0.0,0.0,88,0.00,,,0.00,0,LWC V2.00 B727,2013-07-29 10:01:00,
2013-07-29 04:06:00,49.1,45.7,30.06,ESE,113,0.0,0.0,88,0.00,,,0.00,0,LWC V2.00 B727,2013-07-29 10:06:00,
2013-07-29 04:11:00,48.8,45.1,30.06,ESE,113,0.0,0.0,87,0.00,,,0.00,0,LWC V2.00 B727,2013-07-29 10:11:00,
2013-07-29 04:16:00,48.6,44.9,30.06,ESE,113,0.0,0.0,87,0.00,,,0.00,0,LWC V2.00 B727,2013-07-29 10:16:00,
2013-07-29 04:21:00,48.4,45.0,30.06,ESE,113,0.0,0.0,88,0.00,,,0.00,0,LWC V2.00 B727,2013-07-29 10:21:00,
2013-07-29 04:26:00,48.4,45.0,30.06,ESE,113,0.0,0.0,88,0.00,,,0.00,0,LWC V2.00 B727,2013-07-29 10:26:00,
2013-07-29 04:31:00,48.2,44.8,30.06,ESE,113,0.0,0.0,88,0.00,,,0.00,0,LWC V2.00 B727,2013-07-29 10:31:00,
2013-07-29 04:36:00,48.1,44.7,30.06,ESE,113,0.0,0.0,88,0.00,,,0.00,0,LWC V2.00 B727,2013-07-29 10:36:00,
2013-07-29 04:41:00,48.0,44.6,30.07,ESE,113,0.0,0.0,88,0.00,,,0.00,0,LWC V2.00 B727,2013-07-29 10:41:00,
2013-07-29 04:46:00,47.9,44.5,30.07,ESE,113,0.0,0.0,88,0.00,,,0.00,0,LWC V2.00 B727,2013-07-29 10:46:00,
2013-07-29 04:51:00,47.9,44.8,30.07,ESE,113,0.0,0.0,89,0.00,,,0.01,0,LWC V2.00 B727,2013-07-29 10:51:00,
2013-07-29 04:56:00,48.1,45.0,30.07,ESE,114,1.0,2.0,89,0.00,,,0.01,0,LWC V2.00 B727,2013-07-29 10:56:00,
2013-07-29 05:01:00,48.1,45.3,30.07,ESE,114,1.0,2.0,90,0.00,,,0.01,0,LWC V2.00 B727,2013-07-29 11:01:00,
2013-07-29 05:06:00,48.2,45.4,30.07,ESE,114,0.0,1.0,90,0.00,,,0.01,0,LWC V2.00 B727,2013-07-29 11:06:00,
2013-07-29 05:11:00,48.4,45.6,30.07,ESE,114,0.0,0.0,90,0.00,,,0.01,0,LWC V2.00 B727,2013-07-29 11:11:00,
2013-07-29 05:16:00,48.5,46.0,30.07,ESE,114,0.0,0.0,91,0.00,,,0.01,0,LWC V2.00 B727,2013-07-29 11:16:00,
2013-07-29 05:21:00,48.5,46.0,30.07,ESE,114,0.0,1.0,91,0.00,,,0.01,0,LWC V2.00 B727,2013-07-29 11:21:00,
2013-07-29 05:26:00,48.5,46.0,30.07,ESE,114,0.0,0.0,91,0.00,,,0.01,0,LWC V2.00 B727,2013-07-29 11:26:00,
2013-07-29 05:31:00,48.6,46.1,30.07,ESE,114,0.0,1.0,91,0.00,,,0.01,0,LWC V2.00 B727,2013-07-29 11:31:00,
2013-07-29 05:36:00,48.6,46.1,30.07,ESE,114,1.0,1.0,91,0.00,,,0.01,0,LWC V2.00 B727,2013-07-29 11:36:00,
2013-07-29 05:41:00,48.6,46.1,30.07,ESE,114,0.0,1.0,91,0.00,,,0.01,0,LWC V2.00 B727,2013-07-29 11:41:00,
2013-07-29 05:46:00,48.6,46.1,30.07,ESE,114,0.0,1.0,91,0.00,,,0.01,0,LWC V2.00 B727,2013-07-29 11:46:00,
2013-07-29 05:51:00,48.5,46.0,30.08,ESE,114,0.0,0.0,91,0.00,,,0.01,0,LWC V2.00 B727,2013-07-29 11:51:00,
2013-07-29 05:56:00,48.5,46.0,30.08,ESE,114,0.0,0.0,91,0.00,,,0.01,0,LWC V2.00 B727,2013-07-29 11:56:00,
2013-07-29 06:01:00,48.5,46.0,30.08,ESE,114,0.0,0.0,91,0.00,,,0.01,0,LWC V2.00 B727,2013-07-29 12:01:00,
2013-07-29 06:06:00,48.4,45.9,30.08,ESE,114,0.0,0.0,91,0.00,,,0.01,0,LWC V2.00 B727,2013-07-29 12:06:00,
2013-07-29 06:11:00,48.4,45.6,30.08,ESE,114,0.0,0.0,90,0.00,,,0.01,5,LWC V2.00 B727,2013-07-29 12:11:00,
2013-07-29 06:16:00,48.3,45.8,30.09,ESE,114,0.0,1.0,91,0.00,,,0.01,7,LWC V2.00 B727,2013-07-29 12:16:00,
2013-07-29 06:21:00,48.3,45.5,30.09,ESE,114,0.0,2.0,90,0.00,,,0.01,9,LWC V2.00 B727,2013-07-29 12:21:00,
2013-07-29 06:26:00,48.3,45.8,30.09,ESE,114,0.0,0.0,91,0.00,,,0.01,12,LWC V2.00 B727,2013-07-29 12:26:00,
2013-07-29 06:31:00,48.4,45.9,30.09,ESE,114,0.0,0.0,91,0.00,,,0.01,18,LWC V2.00 B727,2013-07-29 12:31:00,
2013-07-29 06:36:00,48.4,45.9,30.10,ESE,114,0.0,1.0,91,0.00,,,0.01,39,LWC V2.00 B727,2013-07-29 12:36:00,
2013-07-29 06:41:00,48.5,46.0,30.10,ESE,114,0.0,0.0,91,0.00,,,0.01,54,LWC V2.00 B727,2013-07-29 12:41:00,
2013-07-29 06:46:00,48.8,46.3,30.10,ESE,114,0.0,0.0,91,0.00,,,0.01,67,LWC V2.00 B727,2013-07-29 12:46:00,
2013-07-29 06:51:00,49.2,47.0,30.11,ESE,114,0.0,0.0,92,0.00,,,0.01,79,LWC V2.00 B727,2013-07-29 12:51:00,
2013-07-29 06:56:00,49.4,47.2,30.11,ESE,114,0.0,0.0,92,0.00,,,0.01,95,LWC V2.00 B727,2013-07-29 12:56:00,
2013-07-29 07:01:00,49.7,47.5,30.11,ESE,114,0.0,0.0,92,0.00,,,0.01,98,LWC V2.00 B727,2013-07-29 13:01:00,
2013-07-29 07:06:00,50.1,47.9,30.11,ESE,114,0.0,0.0,92,0.00,,,0.01,102,LWC V2.00 B727,2013-07-29 13:06:00,
2013-07-29 07:11:00,50.7,48.5,30.11,ESE,114,0.0,0.0,92,0.00,,,0.01,65,LWC V2.00 B727,2013-07-29 13:11:00,
2013-07-29 07:16:00,51.2,49.2,30.11,ESE,114,0.0,0.0,93,0.00,,,0.01,163,LWC V2.00 B727,2013-07-29 13:16:00,
2013-07-29 07:21:00,51.9,49.9,30.11,ESE,114,0.0,0.0,93,0.00,,,0.01,202,LWC V2.00 B727,2013-07-29 13:21:00,
2013-07-29 07:26:00,52.8,50.8,30.11,ESE,114,0.0,1.0,93,0.00,,,0.01,218,LWC V2.00 B727,2013-07-29 13:26:00,
2013-07-29 07:31:00,53.6,51.6,30.11,ESE,114,0.0,0.0,93,0.00,,,0.01,271,LWC V2.00 B727,2013-07-29 13:31:00,
2013-07-29 07:36:00,54.4,52.4,30.11,ESE,114,0.0,0.0,93,0.00,,,0.01,120,LWC V2.00 B727,2013-07-29 13:36:00,
2013-07-29 07:41:00,55.0,53.0,30.11,ESE,114,0.0,0.0,93,0.00,,,0.01,95,LWC V2.00 B727,2013-07-29 13:41:00,
2013-07-29 07:46:00,55.4,53.1,30.11,ESE,114,0.0,0.0,92,0.00,,,0.01,146,LWC V2.00 B727,2013-07-29 13:46:00,
2013-07-29 07:51:00,55.7,53.4,30.12,ESE,114,0.0,0.0,92,0.00,,,0.01,105,LWC V2.00 B727,2013-07-29 13:51:00,
2013-07-29 07:56:00,55.9,53.3,30.12,ESE,114,0.0,0.0,91,0.00,,,0.01,109,LWC V2.00 B727,2013-07-29 13:56:00,
2013-07-29 08:01:00,56.2,53.6,30.12,ESE,114,0.0,0.0,91,0.00,,,0.01,95,LWC V2.00 B727,2013-07-29 14:01:00,
2013-07-29 08:06:00,56.4,53.5,30.12,ESE,114,0.0,0.0,90,0.00,,,0.01,104,LWC V2.00 B727,2013-07-29 14:06:00,
2013-07-29 08:11:00,56.6,53.4,30.12,ESE,114,0.0,0.0,89,0.00,,,0.01,109,LWC V2.00 B727,2013-07-29 14:11:00,
2013-07-29 08:16:00,56.9,53.7,30.12,ESE,114,0.0,0.0,89,0.00,,,0.01,120,LWC V2.00 B727,2013-07-29 14:16:00,
2013-07-29 08:21:00,57.2,53.7,30.12,ESE,114,0.0,1.0,88,0.00,,,0.01,221,LWC V2.00 B727,2013-07-29 14:21:00,
2013-07-29 08:26:00,57.7,54.2,30.12,ESE,114,0.0,0.0,88,0.00,,,0.01,362,LWC V2.00 B727,2013-07-29 14:26:00,
2013-07-29 08:31:00,58.3,54.4,30.13,ESE,114,0.0,0.0,87,0.00,,,0.01,404,LWC V2.00 B727,2013-07-29 14:31:00,
2013-07-29 08:36:00,59.0,55.1,30.13,ESE,114,0.0,0.0,87,0.00,,,0.01,109,LWC V2.00 B727,2013-07-29 14:36:00,
2013-07-29 08:41:00,59.0,54.2,30.12,ESE,114,0.0,0.0,84,0.00,,,0.01,109,LWC V2.00 B727,2013-07-29 14:41:00,
2013-07-29 08:46:00,59.7,54.2,30.12,ESE,114,0.0,0.0,82,0.00,,,0.01,455,LWC V2.00 B727,2013-07-29 14:46:00,
2013-07-29 08:51:00,60.6,54.7,30.12,ESE,114,0.0,1.0,81,0.00,,,0.01,475,LWC V2.00 B727,2013-07-29 14:51:00,
2013-07-29 08:56:00,61.4,54.8,30.12,ESE,114,0.0,3.0,79,0.00,,,0.01,487,LWC V2.00 B727,2013-07-29 14:56:00,
2013-07-29 09:01:00,62.2,55.3,30.12,ESE,106,0.0,1.0,78,0.00,,,0.01,534,LWC V2.00 B727,2013-07-29 15:01:00,
2013-07-29 09:06:00,63.1,55.4,30.12,East,79,0.0,2.0,76,0.00,,,0.01,589,LWC V2.00 B727,2013-07-29 15:06:00,
2013-07-29 09:11:00,63.9,55.1,30.12,NE,53,2.0,2.0,73,0.00,,,0.01,628,LWC V2.00 B727,2013-07-29 15:11:00,
2013-07-29 09:16:00,64.6,55.0,30.12,NE,34,0.0,1.0,71,0.00,,,0.01,571,LWC V2.00 B727,2013-07-29 15:16:00,
2013-07-29 09:21:00,65.2,55.2,30.11,SW,222,0.0,4.0,70,0.00,,,0.01,570,LWC V2.00 B727,2013-07-29 15:21:00,
2013-07-29 09:26:00,65.9,54.2,30.12,NW,326,2.0,5.0,66,0.00,,,0.01,601,LWC V2.00 B727,2013-07-29 15:26:00,
2013-07-29 09:31:00,66.5,54.4,30.11,NNE,14,2.0,5.0,65,0.00,,,0.01,603,LWC V2.00 B727,2013-07-29 15:31:00,
2013-07-29 09:36:00,67.1,54.1,30.11,SW,222,2.0,4.0,63,0.00,,,0.01,591,LWC V2.00 B727,2013-07-29 15:36:00,
2013-07-29 09:41:00,67.6,54.5,30.11,WNW,297,2.0,5.0,63,0.00,,,0.01,731,LWC V2.00 B727,2013-07-29 15:41:00,
2013-07-29 09:46:00,68.0,54.9,30.11,SSW,210,1.0,3.0,63,0.00,,,0.01,121,LWC V2.00 B727,2013-07-29 15:46:00,
2013-07-29 09:51:00,68.3,54.3,30.11,SW,233,5.0,7.0,61,0.00,,,0.01,657,LWC V2.00 B727,2013-07-29 15:51:00,
2013-07-29 09:56:00,68.6,53.7,30.11,WSW,242,0.0,6.0,59,0.00,,,0.01,652,LWC V2.00 B727,2013-07-29 15:56:00,
2013-07-29 10:01:00,68.7,54.2,30.11,SW,214,4.0,5.0,60,0.00,,,0.01,726,LWC V2.00 B727,2013-07-29 16:01:00,
2013-07-29 10:06:00,68.9,53.5,30.12,SW,217,1.0,7.0,58,0.00,,,0.01,167,LWC V2.00 B727,2013-07-29 16:06:00,
2013-07-29 10:11:00,69.0,54.1,30.11,North,349,6.0,6.0,59,0.00,,,0.01,737,LWC V2.00 B727,2013-07-29 16:11:00,
2013-07-29 10:16:00,69.0,55.0,30.12,WNW,294,0.0,2.0,61,0.00,,,0.01,777,LWC V2.00 B727,2013-07-29 16:16:00,
2013-07-29 10:21:00,69.3,54.3,30.12,SW,228,2.0,5.0,59,0.00,,,0.01,786,LWC V2.00 B727,2013-07-29 16:21:00,
2013-07-29 10:26:00,69.8,54.3,30.12,WSW,240,6.0,9.0,58,0.00,,,0.01,679,LWC V2.00 B727,2013-07-29 16:26:00,
2013-07-29 10:31:00,70.1,54.1,30.12,NW,315,3.0,10.0,57,0.00,,,0.01,782,LWC V2.00 B727,2013-07-29 16:31:00,
2013-07-29 10:36:00,70.5,54.0,30.12,North,355,2.0,8.0,56,0.00,,,0.01,775,LWC V2.00 B727,2013-07-29 16:36:00,
2013-07-29 10:41:00,70.7,55.2,30.12,NNW,342,1.0,4.0,58,0.00,,,0.01,816,LWC V2.00 B727,2013-07-29 16:41:00,
2013-07-29 10:46:00,71.0,53.5,30.12,WSW,237,0.0,5.0,54,0.00,,,0.01,795,LWC V2.00 B727,2013-07-29 16:46:00,
2013-07-29 10:51:00,71.3,54.3,30.12,NNW,340,1.0,6.0,55,0.00,,,0.01,830,LWC V2.00 B727,2013-07-29 16:51:00,
2013-07-29 10:56:00,71.7,53.6,30.12,SW,228,0.0,6.0,53,0.00,,,0.01,842,LWC V2.00 B727,2013-07-29 16:56:00,
2013-07-29 11:01:00,72.1,54.5,30.12,SW,225,3.0,5.0,54,0.00,,,0.01,847,LWC V2.00 B727,2013-07-29 17:01:00,
2013-07-29 11:06:00,72.5,53.9,30.12,NW,323,6.0,7.0,52,0.00,,,0.01,865,LWC V2.00 B727,2013-07-29 17:06:00,
2013-07-29 11:11:00,72.9,53.2,30.12,SW,234,5.0,7.0,50,0.00,,,0.01,875,LWC V2.00 B727,2013-07-29 17:11:00,
2013-07-29 11:16:00,73.4,53.6,30.12,NNW,331,3.0,7.0,50,0.00,,,0.01,882,LWC V2.00 B727,2013-07-29 17:16:00,
2013-07-29 11:21:00,73.6,55.4,30.12,North,0,1.0,2.0,53,0.00,,,0.01,898,LWC V2.00 B727,2013-07-29 17:21:00,
2013-07-29 11:26:00,74.3,54.4,30.13,WNW,284,1.0,3.0,50,0.00,,,0.01,909,LWC V2.00 B727,2013-07-29 17:26:00,
2013-07-29 11:31:00,74.8,53.8,30.13,North,9,6.0,8.0,48,0.00,,,0.01,928,LWC V2.00 B727,2013-07-29 17:31:00,
2013-07-29 11:36:00,74.1,53.7,30.13,SW,230,3.0,11.0,49,0.00,,,0.01,967,LWC V2.00 B727,2013-07-29 17:36:00,
2013-07-29 11:41:00,73.9,53.5,30.13,WNW,286,2.0,2.0,49,0.00,,,0.01,935,LWC V2.00 B727,2013-07-29 17:41:00,
2013-07-29 11:46:00,74.3,53.9,30.13,SW,232,5.0,11.0,49,0.00,,,0.01,916,LWC V2.00 B727,2013-07-29 17:46:00,
2013-07-29 11:51:00,74.8,53.8,30.12,SW,222,6.0,7.0,48,0.00,,,0.01,1000,LWC V2.00 B727,2013-07-29 17:51:00,
2013-07-29 11:56:00,75.3,51.9,30.13,WNW,303,5.0,10.0,44,0.00,,,0.01,1011,LWC V2.00 B727,2013-07-29 17:56:00,
2013-07-29 12:01:00,75.7,53.4,30.13,SSE,166,0.0,7.0,46,0.00,,,0.01,995,LWC V2.00 B727,2013-07-29 18:01:00,
2013-07-29 12:06:00,76.3,53.4,30.13,SW,225,5.0,11.0,45,0.00,,,0.01,1021,LWC V2.00 B727,2013-07-29 18:06:00,
2013-07-29 12:11:00,76.7,53.1,30.13,WSW,254,2.0,9.0,44,0.00,,,0.01,1004,LWC V2.00 B727,2013-07-29 18:11:00,
2013-07-29 12:16:00,77.1,53.5,30.12,WSW,240,5.0,10.0,44,0.00,,,0.01,1042,LWC V2.00 B727,2013-07-29 18:16:00,
2013-07-29 12:21:00,77.3,52.4,30.12,NW,309,3.0,6.0,42,0.00,,,0.01,1053,LWC V2.00 B727,2013-07-29 18:21:00,
2013-07-29 12:26:00,77.5,52.6,30.12,SW,232,1.0,7.0,42,0.00,,,0.01,1023,LWC V2.00 B727,2013-07-29 18:26:00,
2013-07-29 12:31:00,77.9,51.6,30.12,WSW,250,3.0,8.0,40,0.00,,,0.01,1042,LWC V2.00 B727,2013-07-29 18:31:00,
2013-07-29 12:36:00,78.0,52.4,30.12,North,5,2.0,11.0,41,0.00,,,0.01,1046,LWC V2.00 B727,2013-07-29 18:36:00,
2013-07-29 12:41:00,78.0,52.4,30.12,North,0,6.0,13.0,41,0.00,,,0.01,1011,LWC V2.00 B727,2013-07-29 18:41:00,
2013-07-29 12:46:00,77.8,52.8,30.12,NNW,337,4.0,6.0,42,0.00,,,0.01,1129,LWC V2.00 B727,2013-07-29 18:46:00,
2013-07-29 12:51:00,78.1,53.1,30.12,NNW,337,6.0,6.0,42,0.00,,,0.01,1055,LWC V2.00 B727,2013-07-29 18:51:00,
2013-07-29 12:56:00,78.2,53.2,30.12,SSW,201,3.0,11.0,42,0.00,,,0.01,1157,LWC V2.00 B727,2013-07-29 18:56:00,
2013-07-29 13:01:00,79.2,54.1,30.12,NNW,336,5.0,5.0,42,0.00,,,0.01,1065,LWC V2.00 B727,2013-07-29 19:01:00,
2013-07-29 13:06:00,79.9,50.5,30.12,NW,322,4.0,8.0,36,0.00,,,0.01,1072,LWC V2.00 B727,2013-07-29 19:06:00,
2013-07-29 13:11:00,80.2,52.3,30.12,South,190,2.0,3.0,38,0.00,,,0.01,1055,LWC V2.00 B727,2013-07-29 19:11:00,
2013-07-29 13:16:00,80.3,52.4,30.12,North,350,4.0,11.0,38,0.00,,,0.01,1049,LWC V2.00 B727,2013-07-29 19:16:00,
2013-07-29 13:21:00,80.0,50.6,30.12,NW,309,2.0,8.0,36,0.00,,,0.01,1063,LWC V2.00 B727,2013-07-29 19:21:00,
2013-07-29 13:26:00,79.8,51.2,30.12,SW,223,9.0,10.0,37,0.00,,,0.01,1174,LWC V2.00 B727,2013-07-29 19:26:00,
2013-07-29 13:31:00,79.4,50.1,30.12,ENE,73,3.0,9.0,36,0.00,,,0.01,229,LWC V2.00 B727,2013-07-29 19:31:00,
2013-07-29 13:36:00,77.8,50.1,30.12,West,276,1.0,4.0,38,0.00,,,0.01,244,LWC V2.00 B727,2013-07-29 19:36:00,
2013-07-29 13:41:00,76.4,50.3,30.12,SW,215,1.0,9.0,40,0.00,,,0.01,251,LWC V2.00 B727,2013-07-29 19:41:00,
2013-07-29 13:46:00,75.6,49.6,30.12,WSW,252,2.0,7.0,40,0.00,,,0.01,260,LWC V2.00 B727,2013-07-29 19:46:00,
2013-07-29 13:51:00,75.1,50.4,30.12,North,0,1.0,5.0,42,0.00,,,0.01,262,LWC V2.00 B727,2013-07-29 19:51:00,
2013-07-29 13:56:00,76.0,51.9,30.12,WSW,250,6.0,6.0,43,0.00,,,0.01,1058,LWC V2.00 B727,2013-07-29 19:56:00,
2013-07-29 14:01:00,77.8,53.5,30.12,WNW,284,4.0,6.0,43,0.00,,,0.01,1009,LWC V2.00 B727,2013-07-29 20:01:00,
2013-07-29 14:06:00,78.9,51.8,30.12,SW,217,13.0,14.0,39,0.00,,,0.01,983,LWC V2.00 B727,2013-07-29 20:06:00,
2013-07-29 14:11:00,79.4,52.9,30.11,SW,233,2.0,5.0,40,0.00,,,0.01,1007,LWC V2.00 B727,2013-07-29 20:11:00,
2013-07-29 14:16:00,80.7,52.0,30.11,SW,222,1.0,5.0,37,0.00,,,0.01,1016,LWC V2.00 B727,2013-07-29 20:16:00,
2013-07-29 14:21:00,80.1,52.2,30.11,SW,233,6.0,13.0,38,0.00,,,0.01,826,LWC V2.00 B727,2013-07-29 20:21:00,
2013-07-29 14:26:00,81.1,52.3,30.11,SSW,199,6.0,9.0,37,0.00,,,0.01,1002,LWC V2.00 B727,2013-07-29 20:26:00,
2013-07-29 14:31:00,81.8,51.4,30.11,SW,217,4.0,11.0,35,0.00,,,0.01,1030,LWC V2.00 B727,2013-07-29 20:31:00,
2013-07-29 14:36:00,81.8,49.0,30.11,SSW,199,3.0,13.0,32,0.00,,,0.01,192,LWC V2.00 B727,2013-07-29 20:36:00,
2013-07-29 14:41:00,80.3,49.3,30.11,North,5,7.0,8.0,34,0.00,,,0.01,246,LWC V2.00 B727,2013-07-29 20:41:00,
2013-07-29 14:46:00,80.0,49.9,30.11,South,187,3.0,11.0,35,0.00,,,0.01,1051,LWC V2.00 B727,2013-07-29 20:46:00,
2013-07-29 14:51:00,80.3,49.3,30.11,SW,230,5.0,10.0,34,0.00,,,0.01,1065,LWC V2.00 B727,2013-07-29 20:51:00,
2013-07-29 14:56:00,80.5,49.5,30.11,NNW,337,2.0,5.0,34,0.00,,,0.01,1013,LWC V2.00 B727,2013-07-29 20:56:00,
2013-07-29 15:01:00,80.7,49.7,30.10,WSW,237,2.0,10.0,34,0.00,,,0.01,958,LWC V2.00 B727,2013-07-29 21:01:00,
2013-07-29 15:06:00,81.5,48.8,30.10,SW,220,3.0,11.0,32,0.00,,,0.01,974,LWC V2.00 B727,2013-07-29 21:06:00,
2013-07-29 15:11:00,81.3,49.4,30.10,SW,216,6.0,9.0,33,0.00,,,0.01,916,LWC V2.00 B727,2013-07-29 21:11:00,
2013-07-29 15:16:00,82.1,50.1,30.10,NNE,15,2.0,6.0,33,0.00,,,0.01,886,LWC V2.00 B727,2013-07-29 21:16:00,
2013-07-29 15:21:00,82.6,48.9,30.09,WSW,253,5.0,10.0,31,0.00,,,0.01,896,LWC V2.00 B727,2013-07-29 21:21:00,
2013-07-29 15:26:00,83.3,49.5,30.10,SSW,195,4.0,7.0,31,0.00,,,0.01,891,LWC V2.00 B727,2013-07-29 21:26:00,
2013-07-29 15:31:00,83.5,48.8,30.09,SSW,198,3.0,10.0,30,0.00,,,0.01,814,LWC V2.00 B727,2013-07-29 21:31:00,
2013-07-29 15:36:00,83.0,49.2,30.09,SW,233,2.0,7.0,31,0.00,,,0.01,851,LWC V2.00 B727,2013-07-29 21:36:00,
2013-07-29 15:41:00,82.9,47.3,30.09,SW,236,3.0,9.0,29,0.00,,,0.01,817,LWC V2.00 B727,2013-07-29 21:41:00,
2013-07-29 15:46:00,82.8,48.2,30.09,NNW,348,4.0,13.0,30,0.00,,,0.01,802,LWC V2.00 B727,2013-07-29 21:46:00,
2013-07-29 15:51:00,82.3,48.6,30.09,West,280,3.0,10.0,31,0.00,,,0.01,816,LWC V2.00 B727,2013-07-29 21:51:00,
2013-07-29 15:56:00,82.8,49.0,30.08,SW,232,3.0,9.0,31,0.00,,,0.01,816,LWC V2.00 B727,2013-07-29 21:56:00,
2013-07-29 16:01:00,83.6,49.7,30.08,WSW,246,7.0,7.0,31,0.00,,,0.01,828,LWC V2.00 B727,2013-07-29 22:01:00,
2013-07-29 16:06:00,83.0,49.2,30.08,NNW,342,6.0,17.0,31,0.00,,,0.01,796,LWC V2.00 B727,2013-07-29 22:06:00,
2013-07-29 16:11:00,82.2,48.5,30.08,SW,232,5.0,12.0,31,0.00,,,0.01,758,LWC V2.00 B727,2013-07-29 22:11:00,
2013-07-29 16:16:00,82.3,47.7,30.08,SW,234,6.0,9.0,30,0.00,,,0.01,765,LWC V2.00 B727,2013-07-29 22:16:00,
2013-07-29 16:21:00,83.0,48.3,30.08,SW,229,1.0,9.0,30,0.00,,,0.01,749,LWC V2.00 B727,2013-07-29 22:21:00,
2013-07-29 16:26:00,83.2,50.2,30.07,SW,222,2.0,6.0,32,0.00,,,0.01,717,LWC V2.00 B727,2013-07-29 22:26:00,
2013-07-29 16:31:00,82.8,48.2,30.07,WSW,241,3.0,10.0,30,0.00,,,0.01,737,LWC V2.00 B727,2013-07-29 22:31:00,
2013-07-29 16:36:00,83.0,49.2,30.07,SW,217,4.0,15.0,31,0.00,,,0.01,710,LWC V2.00 B727,2013-07-29 22:36:00,
2013-07-29 16:41:00,82.9,47.3,30.07,WSW,244,8.0,11.0,29,0.00,,,0.01,650,LWC V2.00 B727,2013-07-29 22:41:00,
2013-07-29 16:46:00,82.4,49.5,30.07,SW,221,2.0,8.0,32,0.00,,,0.01,647,LWC V2.00 B727,2013-07-29 22:46:00,
2013-07-29 16:51:00,82.1,48.4,30.07,NW,324,2.0,4.0,31,0.00,,,0.01,615,LWC V2.00 B727,2013-07-29 22:51:00,
2013-07-29 16:56:00,82.3,48.6,30.07,SW,236,5.0,7.0,31,0.00,,,0.01,626,LWC V2.00 B727,2013-07-29 22:56:00,
2013-07-29 17:01:00,81.4,47.8,30.06,North,0,4.0,7.0,31,0.00,,,0.01,601,LWC V2.00 B727,2013-07-29 23:01:00,
2013-07-29 17:06:00,81.1,47.6,30.07,SW,223,3.0,9.0,31,0.00,,,0.01,589,LWC V2.00 B727,2013-07-29 23:06:00,
2013-07-29 17:11:00,81.3,47.7,30.06,NW,317,3.0,6.0,31,0.00,,,0.01,575,LWC V2.00 B727,2013-07-29 23:11:00,
2013-07-29 17:16:00,81.4,47.0,30.06,West,267,10.0,12.0,30,0.00,,,0.01,541,LWC V2.00 B727,2013-07-29 23:16:00,
2013-07-29 17:21:00,81.3,47.7,30.07,SW,225,3.0,9.0,31,0.00,,,0.01,540,LWC V2.00 B727,2013-07-29 23:21:00,
2013-07-29 17:26:00,81.1,47.6,30.06,WSW,242,5.0,7.0,31,0.00,,,0.01,540,LWC V2.00 B727,2013-07-29 23:26:00,
2013-07-29 17:31:00,81.1,48.4,30.06,SSW,208,2.0,6.0,32,0.00,,,0.01,526,LWC V2.00 B727,2013-07-29 23:31:00,
2013-07-29 17:36:00,81.6,48.0,30.06,SW,236,6.0,6.0,31,0.00,,,0.01,501,LWC V2.00 B727,2013-07-29 23:36:00,
2013-07-29 17:41:00,81.3,47.7,30.07,North,355,8.0,8.0,31,0.00,,,0.01,476,LWC V2.00 B727,2013-07-29 23:41:00,
2013-07-29 17:46:00,80.5,47.1,30.07,WSW,245,4.0,8.0,31,0.00,,,0.01,454,LWC V2.00 B727,2013-07-29 23:46:00,
2013-07-29 17:51:00,80.5,47.1,30.07,SW,233,9.0,9.0,31,0.00,,,0.01,429,LWC V2.00 B727,2013-07-29 23:51:00,
2013-07-29 17:56:00,80.5,47.1,30.07,SW,233,7.0,9.0,31,0.00,,,0.01,410,LWC V2.00 B727,2013-07-29 23:56:00,
2013-07-29 18:01:00,79.8,48.1,30.06,NNW,344,5.0,6.0,33,0.00,,,0.01,290,LWC V2.00 B727,2013-07-30 00:01:00,
2013-07-29 18:06:00,79.1,47.5,30.06,SW,228,4.0,6.0,33,0.00,,,0.01,62,LWC V2.00 B727,2013-07-30 00:06:00,
2013-07-29 18:11:00,79.0,47.4,30.06,North,355,8.0,8.0,33,0.00,,,0.01,67,LWC V2.00 B727,2013-07-30 00:11:00,
2013-07-29 18:16:00,78.7,47.2,30.06,WSW,241,4.0,8.0,33,0.00,,,0.01,54,LWC V2.00 B727,2013-07-30 00:16:00,
2013-07-29 18:21:00,78.3,46.8,30.07,WSW,239,3.0,8.0,33,0.00,,,0.01,39,LWC V2.00 B727,2013-07-30 00:21:00,
2013-07-29 18:26:00,77.9,47.2,30.07,North,355,3.0,7.0,34,0.00,,,0.01,42,LWC V2.00 B727,2013-07-30 00:26:00,
2013-07-29 18:31:00,77.4,46.0,30.07,NNW,333,2.0,9.0,33,0.00,,,0.01,44,LWC V2.00 B727,2013-07-30 00:31:00,
2013-07-29 18:36:00,76.9,45.6,30.07,NNE,15,7.0,9.0,33,0.00,,,0.01,40,LWC V2.00 B727,2013-07-30 00:36:00,
2013-07-29 18:41:00,76.3,44.3,30.07,NNW,348,6.0,12.0,32,0.00,,,0.01,40,LWC V2.00 B727,2013-07-30 00:41:00,
2013-07-29 18:46:00,75.8,44.6,30.07,NNW,329,1.0,5.0,33,0.00,,,0.01,37,LWC V2.00 B727,2013-07-30 00:46:00,
2013-07-29 18:51:00,75.7,45.3,30.08,North,350,3.0,7.0,34,0.00,,,0.01,33,LWC V2.00 B727,2013-07-30 00:51:00,
2013-07-29 18:56:00,75.5,44.4,30.08,North,5,4.0,6.0,33,0.00,,,0.01,37,LWC V2.00 B727,2013-07-30 00:56:00,
2013-07-29 19:01:00,75.2,44.9,30.08,NNW,344,0.0,7.0,34,0.00,,,0.01,32,LWC V2.00 B727,2013-07-30 01:01:00,
2013-07-29 19:06:00,75.0,44.7,30.08,North,355,1.0,6.0,34,0.00,,,0.01,32,LWC V2.00 B727,2013-07-30 01:06:00,
2013-07-29 19:11:00,74.8,44.5,30.08,NNW,327,2.0,3.0,34,0.00,,,0.01,30,LWC V2.00 B727,2013-07-30 01:11:00,
2013-07-29 19:16:00,74.7,45.2,30.08,North,350,4.0,4.0,35,0.00,,,0.01,28,LWC V2.00 B727,2013-07-30 01:16:00,
2013-07-29 19:21:00,74.4,44.9,30.08,NW,311,0.0,5.0,35,0.00,,,0.01,28,LWC V2.00 B727,2013-07-30 01:21:00,
2013-07-29 19:26:00,74.3,44.9,30.08,NNW,338,3.0,3.0,35,0.00,,,0.01,26,LWC V2.00 B727,2013-07-30 01:26:00,
2013-07-29 19:31:00,74.1,44.7,30.08,NNW,348,3.0,6.0,35,0.00,,,0.01,23,LWC V2.00 B727,2013-07-30 01:31:00,
2013-07-29 19:36:00,73.9,45.2,30.08,NNW,338,2.0,3.0,36,0.00,,,0.01,23,LWC V2.00 B727,2013-07-30 01:36:00,
2013-07-29 19:41:00,73.6,45.7,30.08,NNW,340,1.0,4.0,37,0.00,,,0.01,21,LWC V2.00 B727,2013-07-30 01:41:00,
2013-07-29 19:47:00,73.4,44.8,30.08,NNW,345,3.0,6.0,36,0.00,,,0.01,19,LWC V2.00 B727,2013-07-30 01:47:00,
2013-07-29 19:52:00,73.1,44.5,30.08,NNW,334,3.0,5.0,36,0.00,,,0.01,19,LWC V2.00 B727,2013-07-30 01:52:00,
2013-07-29 19:57:00,72.8,45.0,30.08,NNW,338,2.0,3.0,37,0.00,,,0.01,14,LWC V2.00 B727,2013-07-30 01:57:00,
2013-07-29 20:01:00,72.6,45.5,30.09,NNW,338,0.0,0.0,38,0.00,,,0.01,11,LWC V2.00 B727,2013-07-30 02:01:00,
2013-07-29 20:06:00,72.2,45.2,30.08,NNW,339,1.0,3.0,38,0.00,,,0.01,7,LWC V2.00 B727,2013-07-30 02:06:00,
2013-07-29 20:11:00,71.8,45.5,30.09,NNW,345,2.0,3.0,39,0.00,,,0.01,0,LWC V2.00 B727,2013-07-30 02:11:00,
2013-07-29 20:16:00,71.4,45.1,30.08,NNW,345,0.0,1.0,39,0.00,,,0.01,0,LWC V2.00 B727,2013-07-30 02:16:00,
2013-07-29 20:22:00,71.1,44.9,30.09,NNW,346,0.0,1.0,39,0.00,,,0.01,0,LWC V2.00 B727,2013-07-30 02:22:00,
2013-07-29 20:27:00,70.7,45.8,30.09,NNW,346,0.0,0.0,41,0.00,,,0.01,0,LWC V2.00 B727,2013-07-30 02:27:00,
2013-07-29 20:32:00,70.3,45.5,30.09,NNW,346,0.0,1.0,41,0.00,,,0.01,0,LWC V2.00 B727,2013-07-30 02:32:00,
2013-07-29 20:37:00,70.0,45.8,30.09,NNW,346,0.0,0.0,42,0.00,,,0.01,0,LWC V2.00 B727,2013-07-30 02:37:00,
2013-07-29 20:42:00,69.5,46.0,30.09,NNW,346,0.0,0.0,43,0.00,,,0.01,0,LWC V2.00 B727,2013-07-30 02:42:00,
2013-07-29 20:47:00,69.0,46.2,30.10,NNW,345,0.0,0.0,44,0.00,,,0.01,0,LWC V2.00 B727,2013-07-30 02:47:00,
2013-07-29 20:52:00,68.3,46.7,30.10,NNW,346,0.0,0.0,46,0.00,,,0.01,0,LWC V2.00 B727,2013-07-30 02:52:00,
2013-07-29 20:57:00,67.6,46.6,30.10,NNW,346,0.0,0.0,47,0.00,,,0.01,0,LWC V2.00 B727,2013-07-30 02:57:00,
2013-07-29 21:02:00,67.0,46.7,30.11,NNW,345,0.0,0.0,48,0.00,,,0.01,0,LWC V2.00 B727,2013-07-30 03:02:00,
2013-07-29 21:07:00,66.4,46.7,30.11,NNW,346,0.0,0.0,49,0.00,,,0.01,0,LWC V2.00 B727,2013-07-30 03:07:00,
2013-07-29 21:12:00,65.8,46.6,30.11,NNW,346,0.0,0.0,50,0.00,,,0.01,0,LWC V2.00 B727,2013-07-30 03:12:00,
2013-07-29 21:17:00,65.2,47.6,30.11,NNW,345,0.0,0.0,53,0.00,,,0.01,0,LWC V2.00 B727,2013-07-30 03:17:00,
2013-07-29 21:22:00,64.5,46.5,30.11,NNW,345,0.0,0.0,52,0.00,,,0.01,0,LWC V2.00 B727,2013-07-30 03:22:00,
2013-07-29 21:27:00,63.9,46.4,30.11,NNW,346,0.0,0.0,53,0.00,,,0.01,0,LWC V2.00 B727,2013-07-30 03:27:00,
2013-07-29 21:32:00,63.4,46.0,30.12,NNW,346,0.0,0.0,53,0.00,,,0.01,0,LWC V2.00 B727,2013-07-30 03:32:00,
2013-07-29 21:37:00,63.0,46.1,30.12,NNW,346,0.0,0.0,54,0.00,,,0.01,0,LWC V2.00 B727,2013-07-30 03:37:00,
2013-07-29 21:42:00,62.6,46.2,30.12,NNW,345,0.0,0.0,55,0.00,,,0.01,0,LWC V2.00 B727,2013-07-30 03:42:00,
2013-07-29 21:47:00,62.1,45.7,30.12,NNW,346,0.0,0.0,55,0.00,,,0.01,0,LWC V2.00 B727,2013-07-30 03:47:00,
2013-07-29 21:52:00,61.6,45.3,30.13,NNW,345,0.0,0.0,55,0.00,,,0.01,0,LWC V2.00 B727,2013-07-30 03:52:00,
2013-07-29 21:57:00,61.1,45.3,30.14,NNW,345,0.0,1.0,56,0.00,,,0.01,0,LWC V2.00 B727,2013-07-30 03:57:00,
2013-07-29 22:01:00,60.8,45.0,30.14,NNW,346,0.0,0.0,56,0.00,,,0.01,0,LWC V2.00 B727,2013-07-30 04:01:00,
2013-07-29 22:02:00,60.7,44.9,30.14,NNW,346,0.0,0.0,56,0.00,,,0.01,0,LWC V2.00 B727,2013-07-30 04:02:00,
2013-07-29 22:06:00,60.5,44.7,30.14,NNW,346,0.0,0.0,56,0.00,,,0.01,0,LWC V2.00 B727,2013-07-30 04:06:00,
2013-07-29 22:11:00,60.3,45.0,30.15,NNW,346,0.0,1.0,57,0.00,,,0.01,0,LWC V2.00 B727,2013-07-30 04:11:00,
2013-07-29 22:16:00,60.1,44.8,30.15,NNW,344,0.0,0.0,57,0.00,,,0.01,0,LWC V2.00 B727,2013-07-30 04:16:00,
2013-07-29 22:21:00,59.9,45.1,30.15,NNW,344,0.0,0.0,58,0.00,,,0.01,0,LWC V2.00 B727,2013-07-30 04:21:00,
2013-07-29 22:26:00,59.6,44.8,30.15,NNW,344,0.0,1.0,58,0.00,,,0.01,0,LWC V2.00 B727,2013-07-30 04:26:00,
2013-07-29 22:31:00,59.4,44.6,30.15,NNW,344,0.0,1.0,58,0.00,,,0.01,0,LWC V2.00 B727,2013-07-30 04:31:00,
2013-07-29 22:36:00,59.2,44.4,30.15,NNW,344,0.0,1.0,58,0.00,,,0.01,0,LWC V2.00 B727,2013-07-30 04:36:00,
2013-07-29 22:41:00,59.1,44.3,30.15,NNW,344,0.0,0.0,58,0.00,,,0.01,0,LWC V2.00 B727,2013-07-30 04:41:00,
2013-07-29 22:46:00,59.0,44.2,30.16,NNW,344,0.0,0.0,58,0.00,,,0.01,0,LWC V2.00 B727,2013-07-30 04:46:00,
2013-07-29 22:51:00,59.0,44.2,30.16,NNW,344,0.0,0.0,58,0.00,,,0.01,0,LWC V2.00 B727,2013-07-30 04:51:00,
2013-07-29 22:56:00,59.0,44.7,30.16,NNW,345,0.0,0.0,59,0.00,,,0.01,0,LWC V2.00 B727,2013-07-30 04:56:00,
2013-07-29 23:01:00,58.7,44.8,30.16,NNW,345,0.0,0.0,60,0.00,,,0.01,0,LWC V2.00 B727,2013-07-30 05:01:00,
2013-07-29 23:06:00,58.4,44.1,30.16,NNW,346,0.0,0.0,59,0.00,,,0.01,0,LWC V2.00 B727,2013-07-30 05:06:00,
2013-07-29 23:11:00,58.1,44.3,30.16,NNW,346,0.0,0.0,60,0.00,,,0.01,0,LWC V2.00 B727,2013-07-30 05:11:00,
2013-07-29 23:16:00,57.6,44.2,30.16,NNW,346,0.0,1.0,61,0.00,,,0.01,0,LWC V2.00 B727,2013-07-30 05:16:00,
2013-07-29 23:21:00,56.9,44.0,30.16,NNW,346,0.0,0.0,62,0.00,,,0.01,0,LWC V2.00 B727,2013-07-30 05:21:00,
2013-07-29 23:26:00,56.3,43.9,30.17,NNW,346,0.0,0.0,63,0.00,,,0.01,0,LWC V2.00 B727,2013-07-30 05:26:00,
2013-07-29 23:31:00,55.9,43.5,30.17,NNW,348,0.0,1.0,63,0.00,,,0.01,0,LWC V2.00 B727,2013-07-30 05:31:00,
2013-07-29 23:36:00,55.6,43.2,30.17,North,355,0.0,0.0,63,0.00,,,0.01,0,LWC V2.00 B727,2013-07-30 05:36:00,
2013-07-29 23:41:00,55.4,43.4,30.17,North,355,0.0,0.0,64,0.00,,,0.01,0,LWC V2.00 B727,2013-07-30 05:41:00,
2013-07-29 23:46:00,55.1,43.1,30.17,North,355,0.0,0.0,64,0.00,,,0.01,0,LWC V2.00 B727,2013-07-30 05:46:00,
2013-07-29 23:51:00,55.0,43.0,30.17,North,355,0.0,0.0,64,0.00,,,0.01,0,LWC V2.00 B727,2013-07-30 05:51:00,
2013-07-29 23:56:00,54.9,43.0,30.17,North,355,0.0,1.0,64,0.00,,,0.01,0,LWC V2.00 B727,2013-07-30 05:56:00,